sensor_id;sensor_type;location;lat;lon;timestamp;P1;durP1;ratioP1;P2;durP2;ratioP2
34497;SDS011;20744;50.938;7.286;2024-02-26T00:00:51;1.50;;;0.60;;
34497;SDS011;20744;50.938;7.286;2024-02-26T00:03:19;2.20;;;0.70;;
34497;SDS011;20744;50.938;7.286;2024-02-26T00:05:46;1.50;;;0.50;;
34497;SDS011;20744;50.938;7.286;2024-02-26T00:08:15;2.65;;;0.80;;
34497;SDS011;20744;50.938;7.286;2024-02-26T00:10:42;1.48;;;0.60;;
34497;SDS011;20744;50.938;7.286;2024-02-26T00:13:10;2.72;;;0.60;;
34497;SDS011;20744;50.938;7.286;2024-02-26T00:15:38;1.27;;;0.52;;
34497;SDS011;20744;50.938;7.286;2024-02-26T00:18:09;2.60;;;0.63;;
34497;SDS011;20744;50.938;7.286;2024-02-26T00:20:36;1.30;;;0.50;;
34497;SDS011;20744;50.938;7.286;2024-02-26T00:23:08;2.90;;;0.60;;
34497;SDS011;20744;50.938;7.286;2024-02-26T00:25:48;1.98;;;0.65;;
34497;SDS011;20744;50.938;7.286;2024-02-26T00:28:29;1.23;;;0.60;;
34497;SDS011;20744;50.938;7.286;2024-02-26T00:30:57;2.05;;;0.45;;
34497;SDS011;20744;50.938;7.286;2024-02-26T00:33:24;1.40;;;0.63;;
34497;SDS011;20744;50.938;7.286;2024-02-26T00:35:51;1.65;;;0.60;;
34497;SDS011;20744;50.938;7.286;2024-02-26T00:38:19;1.90;;;0.68;;
34497;SDS011;20744;50.938;7.286;2024-02-26T00:40:47;1.48;;;0.60;;
34497;SDS011;20744;50.938;7.286;2024-02-26T00:43:15;1.38;;;0.50;;
34497;SDS011;20744;50.938;7.286;2024-02-26T00:45:42;0.80;;;0.52;;
34497;SDS011;20744;50.938;7.286;2024-02-26T00:48:11;1.35;;;0.70;;
34497;SDS011;20744;50.938;7.286;2024-02-26T00:50:39;4.15;;;0.77;;
34497;SDS011;20744;50.938;7.286;2024-02-26T00:53:06;0.90;;;0.50;;
34497;SDS011;20744;50.938;7.286;2024-02-26T00:55:35;1.63;;;0.70;;
34497;SDS011;20744;50.938;7.286;2024-02-26T00:58:03;1.00;;;0.50;;
34497;SDS011;20744;50.938;7.286;2024-02-26T01:00:31;2.00;;;0.80;;
34497;SDS011;20744;50.938;7.286;2024-02-26T01:02:58;1.70;;;0.75;;
34497;SDS011;20744;50.938;7.286;2024-02-26T01:05:25;1.13;;;0.60;;
34497;SDS011;20744;50.938;7.286;2024-02-26T01:07:53;1.25;;;0.68;;
34497;SDS011;20744;50.938;7.286;2024-02-26T01:10:20;1.67;;;0.77;;
34497;SDS011;20744;50.938;7.286;2024-02-26T01:12:47;1.83;;;0.70;;
34497;SDS011;20744;50.938;7.286;2024-02-26T01:15:16;1.92;;;0.80;;
34497;SDS011;20744;50.938;7.286;2024-02-26T01:17:47;2.58;;;0.77;;
34497;SDS011;20744;50.938;7.286;2024-02-26T01:20:14;1.35;;;0.50;;
34497;SDS011;20744;50.938;7.286;2024-02-26T01:22:41;1.90;;;0.65;;
34497;SDS011;20744;50.938;7.286;2024-02-26T01:25:09;0.98;;;0.60;;
34497;SDS011;20744;50.938;7.286;2024-02-26T01:27:36;2.38;;;0.60;;
34497;SDS011;20744;50.938;7.286;2024-02-26T01:30:04;0.73;;;0.50;;
34497;SDS011;20744;50.938;7.286;2024-02-26T01:32:33;2.03;;;0.65;;
34497;SDS011;20744;50.938;7.286;2024-02-26T01:35:01;2.22;;;0.80;;
34497;SDS011;20744;50.938;7.286;2024-02-26T01:37:30;2.08;;;0.70;;
34497;SDS011;20744;50.938;7.286;2024-02-26T01:39:57;1.67;;;0.70;;
34497;SDS011;20744;50.938;7.286;2024-02-26T01:42:24;0.90;;;0.47;;
34497;SDS011;20744;50.938;7.286;2024-02-26T01:44:52;5.13;;;0.82;;
34497;SDS011;20744;50.938;7.286;2024-02-26T01:47:19;1.00;;;0.50;;
34497;SDS011;20744;50.938;7.286;2024-02-26T01:49:48;6.03;;;0.93;;
34497;SDS011;20744;50.938;7.286;2024-02-26T01:52:15;2.40;;;0.80;;
34497;SDS011;20744;50.938;7.286;2024-02-26T01:54:42;1.15;;;0.75;;
34497;SDS011;20744;50.938;7.286;2024-02-26T01:57:12;2.53;;;0.80;;
34497;SDS011;20744;50.938;7.286;2024-02-26T01:59:39;4.72;;;0.80;;
34497;SDS011;20744;50.938;7.286;2024-02-26T02:02:07;1.55;;;0.70;;
34497;SDS011;20744;50.938;7.286;2024-02-26T02:04:35;2.00;;;0.50;;
34497;SDS011;20744;50.938;7.286;2024-02-26T02:07:04;2.95;;;0.70;;
34497;SDS011;20744;50.938;7.286;2024-02-26T02:09:31;1.23;;;0.45;;
34497;SDS011;20744;50.938;7.286;2024-02-26T02:11:59;3.38;;;0.60;;
34497;SDS011;20744;50.938;7.286;2024-02-26T02:14:27;1.02;;;0.60;;
34497;SDS011;20744;50.938;7.286;2024-02-26T02:16:54;1.00;;;0.35;;
34497;SDS011;20744;50.938;7.286;2024-02-26T02:19:22;1.67;;;0.70;;
34497;SDS011;20744;50.938;7.286;2024-02-26T02:21:50;1.50;;;0.70;;
34497;SDS011;20744;50.938;7.286;2024-02-26T02:24:18;0.82;;;0.55;;
34497;SDS011;20744;50.938;7.286;2024-02-26T02:26:45;1.25;;;0.60;;
34497;SDS011;20744;50.938;7.286;2024-02-26T02:29:12;0.85;;;0.50;;
34497;SDS011;20744;50.938;7.286;2024-02-26T02:31:40;2.42;;;0.90;;
34497;SDS011;20744;50.938;7.286;2024-02-26T02:34:09;1.48;;;0.60;;
34497;SDS011;20744;50.938;7.286;2024-02-26T02:36:47;2.90;;;0.63;;
34497;SDS011;20744;50.938;7.286;2024-02-26T02:39:16;0.60;;;0.50;;
34497;SDS011;20744;50.938;7.286;2024-02-26T02:41:44;0.93;;;0.47;;
34497;SDS011;20744;50.938;7.286;2024-02-26T02:44:11;1.17;;;0.63;;
34497;SDS011;20744;50.938;7.286;2024-02-26T02:46:39;1.30;;;0.55;;
34497;SDS011;20744;50.938;7.286;2024-02-26T02:49:07;3.42;;;0.70;;
34497;SDS011;20744;50.938;7.286;2024-02-26T02:51:35;1.70;;;0.75;;
34497;SDS011;20744;50.938;7.286;2024-02-26T02:54:03;2.65;;;0.80;;
34497;SDS011;20744;50.938;7.286;2024-02-26T02:56:31;1.10;;;0.60;;
34497;SDS011;20744;50.938;7.286;2024-02-26T02:58:59;3.25;;;0.90;;
34497;SDS011;20744;50.938;7.286;2024-02-26T03:01:26;1.88;;;0.60;;
34497;SDS011;20744;50.938;7.286;2024-02-26T03:03:53;0.93;;;0.50;;
34497;SDS011;20744;50.938;7.286;2024-02-26T03:06:20;1.60;;;0.77;;
34497;SDS011;20744;50.938;7.286;2024-02-26T03:08:48;2.10;;;0.90;;
34497;SDS011;20744;50.938;7.286;2024-02-26T03:11:15;1.42;;;0.68;;
34497;SDS011;20744;50.938;7.286;2024-02-26T03:13:47;2.03;;;0.80;;
34497;SDS011;20744;50.938;7.286;2024-02-26T03:16:14;2.25;;;0.77;;
34497;SDS011;20744;50.938;7.286;2024-02-26T03:18:41;2.17;;;0.75;;
34497;SDS011;20744;50.938;7.286;2024-02-26T03:21:09;0.80;;;0.60;;
34497;SDS011;20744;50.938;7.286;2024-02-26T03:23:36;0.90;;;0.57;;
34497;SDS011;20744;50.938;7.286;2024-02-26T03:26:03;1.25;;;0.50;;
34497;SDS011;20744;50.938;7.286;2024-02-26T03:28:31;1.30;;;0.63;;
34497;SDS011;20744;50.938;7.286;2024-02-26T03:30:59;1.25;;;0.77;;
34497;SDS011;20744;50.938;7.286;2024-02-26T03:33:27;1.27;;;0.60;;
34497;SDS011;20744;50.938;7.286;2024-02-26T03:35:55;0.80;;;0.60;;
34497;SDS011;20744;50.938;7.286;2024-02-26T03:38:22;2.25;;;0.80;;
34497;SDS011;20744;50.938;7.286;2024-02-26T03:40:49;2.63;;;0.70;;
34497;SDS011;20744;50.938;7.286;2024-02-26T03:43:18;1.42;;;0.80;;
34497;SDS011;20744;50.938;7.286;2024-02-26T03:45:45;3.60;;;0.90;;
34497;SDS011;20744;50.938;7.286;2024-02-26T03:48:14;2.67;;;0.90;;
34497;SDS011;20744;50.938;7.286;2024-02-26T03:50:41;2.13;;;0.88;;
34497;SDS011;20744;50.938;7.286;2024-02-26T03:53:08;3.63;;;1.00;;
34497;SDS011;20744;50.938;7.286;2024-02-26T03:55:37;1.67;;;0.70;;
34497;SDS011;20744;50.938;7.286;2024-02-26T03:58:06;2.05;;;0.80;;
34497;SDS011;20744;50.938;7.286;2024-02-26T04:00:34;2.20;;;1.05;;
34497;SDS011;20744;50.938;7.286;2024-02-26T04:03:01;4.35;;;0.90;;
34497;SDS011;20744;50.938;7.286;2024-02-26T04:05:29;2.22;;;0.93;;
34497;SDS011;20744;50.938;7.286;2024-02-26T04:07:57;2.83;;;0.80;;
34497;SDS011;20744;50.938;7.286;2024-02-26T04:10:24;1.75;;;0.82;;
34497;SDS011;20744;50.938;7.286;2024-02-26T04:12:51;3.80;;;1.15;;
34497;SDS011;20744;50.938;7.286;2024-02-26T04:15:19;1.92;;;0.88;;
34497;SDS011;20744;50.938;7.286;2024-02-26T04:17:46;1.92;;;0.90;;
34497;SDS011;20744;50.938;7.286;2024-02-26T04:20:13;1.85;;;0.90;;
34497;SDS011;20744;50.938;7.286;2024-02-26T04:22:43;2.90;;;0.80;;
34497;SDS011;20744;50.938;7.286;2024-02-26T04:25:11;2.00;;;1.13;;
34497;SDS011;20744;50.938;7.286;2024-02-26T04:27:38;2.10;;;0.80;;
34497;SDS011;20744;50.938;7.286;2024-02-26T04:30:06;4.20;;;0.77;;
34497;SDS011;20744;50.938;7.286;2024-02-26T04:32:34;5.28;;;1.02;;
34497;SDS011;20744;50.938;7.286;2024-02-26T04:35:01;4.10;;;0.90;;
34497;SDS011;20744;50.938;7.286;2024-02-26T04:37:29;1.70;;;0.90;;
34497;SDS011;20744;50.938;7.286;2024-02-26T04:39:59;2.47;;;0.88;;
34497;SDS011;20744;50.938;7.286;2024-02-26T04:42:26;1.58;;;0.63;;
34497;SDS011;20744;50.938;7.286;2024-02-26T04:44:54;2.28;;;0.90;;
34497;SDS011;20744;50.938;7.286;2024-02-26T04:47:21;1.55;;;0.77;;
34497;SDS011;20744;50.938;7.286;2024-02-26T04:49:49;1.90;;;0.85;;
34497;SDS011;20744;50.938;7.286;2024-02-26T04:52:16;1.23;;;0.77;;
34497;SDS011;20744;50.938;7.286;2024-02-26T04:54:43;1.98;;;0.90;;
34497;SDS011;20744;50.938;7.286;2024-02-26T04:57:12;2.88;;;0.90;;
34497;SDS011;20744;50.938;7.286;2024-02-26T04:59:39;3.35;;;1.00;;
34497;SDS011;20744;50.938;7.286;2024-02-26T05:02:07;1.67;;;0.98;;
34497;SDS011;20744;50.938;7.286;2024-02-26T05:04:34;1.83;;;1.00;;
34497;SDS011;20744;50.938;7.286;2024-02-26T05:07:02;2.30;;;1.00;;
34497;SDS011;20744;50.938;7.286;2024-02-26T05:09:29;2.90;;;1.27;;
34497;SDS011;20744;50.938;7.286;2024-02-26T05:11:56;4.57;;;1.00;;
34497;SDS011;20744;50.938;7.286;2024-02-26T05:14:25;2.35;;;1.10;;
34497;SDS011;20744;50.938;7.286;2024-02-26T05:16:52;3.47;;;1.23;;
34497;SDS011;20744;50.938;7.286;2024-02-26T05:19:20;3.67;;;1.23;;
34497;SDS011;20744;50.938;7.286;2024-02-26T05:21:47;2.55;;;1.13;;
34497;SDS011;20744;50.938;7.286;2024-02-26T05:24:15;1.70;;;1.10;;
34497;SDS011;20744;50.938;7.286;2024-02-26T05:26:43;4.15;;;1.58;;
34497;SDS011;20744;50.938;7.286;2024-02-26T05:29:10;3.50;;;1.17;;
34497;SDS011;20744;50.938;7.286;2024-02-26T05:31:39;2.42;;;1.40;;
34497;SDS011;20744;50.938;7.286;2024-02-26T05:34:08;2.20;;;1.45;;
34497;SDS011;20744;50.938;7.286;2024-02-26T05:36:36;2.25;;;1.13;;
34497;SDS011;20744;50.938;7.286;2024-02-26T05:39:04;3.53;;;1.20;;
34497;SDS011;20744;50.938;7.286;2024-02-26T05:41:32;4.00;;;1.33;;
34497;SDS011;20744;50.938;7.286;2024-02-26T05:43:59;3.67;;;1.08;;
34497;SDS011;20744;50.938;7.286;2024-02-26T05:46:29;2.55;;;1.13;;
34497;SDS011;20744;50.938;7.286;2024-02-26T05:48:57;3.45;;;1.40;;
34497;SDS011;20744;50.938;7.286;2024-02-26T05:51:25;2.28;;;1.23;;
34497;SDS011;20744;50.938;7.286;2024-02-26T05:53:52;4.15;;;1.23;;
34497;SDS011;20744;50.938;7.286;2024-02-26T05:56:20;3.97;;;1.33;;
34497;SDS011;20744;50.938;7.286;2024-02-26T05:58:47;2.75;;;1.38;;
34497;SDS011;20744;50.938;7.286;2024-02-26T06:01:15;3.70;;;1.50;;
34497;SDS011;20744;50.938;7.286;2024-02-26T06:03:42;1.58;;;1.17;;
34497;SDS011;20744;50.938;7.286;2024-02-26T06:06:11;2.55;;;1.50;;
34497;SDS011;20744;50.938;7.286;2024-02-26T06:08:40;5.20;;;1.70;;
34497;SDS011;20744;50.938;7.286;2024-02-26T06:11:07;3.22;;;1.50;;
34497;SDS011;20744;50.938;7.286;2024-02-26T06:13:34;5.55;;;1.80;;
34497;SDS011;20744;50.938;7.286;2024-02-26T06:16:02;2.67;;;1.48;;
34497;SDS011;20744;50.938;7.286;2024-02-26T06:18:30;4.07;;;1.83;;
34497;SDS011;20744;50.938;7.286;2024-02-26T06:21:03;7.97;;;1.92;;
34497;SDS011;20744;50.938;7.286;2024-02-26T06:23:31;2.90;;;1.73;;
34497;SDS011;20744;50.938;7.286;2024-02-26T06:25:58;4.25;;;1.83;;
34497;SDS011;20744;50.938;7.286;2024-02-26T06:28:26;3.58;;;1.50;;
34497;SDS011;20744;50.938;7.286;2024-02-26T06:30:55;2.17;;;1.42;;
34497;SDS011;20744;50.938;7.286;2024-02-26T06:33:22;2.40;;;1.50;;
34497;SDS011;20744;50.938;7.286;2024-02-26T06:35:50;3.10;;;1.45;;
34497;SDS011;20744;50.938;7.286;2024-02-26T06:38:17;3.53;;;1.40;;
34497;SDS011;20744;50.938;7.286;2024-02-26T06:40:45;3.70;;;1.35;;
34497;SDS011;20744;50.938;7.286;2024-02-26T06:43:13;3.10;;;1.58;;
34497;SDS011;20744;50.938;7.286;2024-02-26T06:45:40;3.45;;;1.58;;
34497;SDS011;20744;50.938;7.286;2024-02-26T06:48:07;5.05;;;2.05;;
34497;SDS011;20744;50.938;7.286;2024-02-26T06:50:35;5.30;;;2.00;;
34497;SDS011;20744;50.938;7.286;2024-02-26T06:53:02;6.15;;;1.70;;
34497;SDS011;20744;50.938;7.286;2024-02-26T06:55:31;2.53;;;1.25;;
34497;SDS011;20744;50.938;7.286;2024-02-26T06:58:02;4.90;;;1.80;;
34497;SDS011;20744;50.938;7.286;2024-02-26T07:00:30;2.50;;;1.50;;
34497;SDS011;20744;50.938;7.286;2024-02-26T07:02:57;4.25;;;1.70;;
34497;SDS011;20744;50.938;7.286;2024-02-26T07:05:24;4.32;;;1.70;;
34497;SDS011;20744;50.938;7.286;2024-02-26T07:07:51;3.58;;;1.70;;
34497;SDS011;20744;50.938;7.286;2024-02-26T07:10:21;3.25;;;1.52;;
34497;SDS011;20744;50.938;7.286;2024-02-26T07:12:49;3.20;;;1.67;;
34497;SDS011;20744;50.938;7.286;2024-02-26T07:15:17;3.47;;;2.00;;
34497;SDS011;20744;50.938;7.286;2024-02-26T07:17:44;3.67;;;1.90;;
34497;SDS011;20744;50.938;7.286;2024-02-26T07:20:14;4.20;;;2.00;;
34497;SDS011;20744;50.938;7.286;2024-02-26T07:22:43;3.70;;;1.80;;
34497;SDS011;20744;50.938;7.286;2024-02-26T07:25:10;2.88;;;1.70;;
34497;SDS011;20744;50.938;7.286;2024-02-26T07:27:38;4.75;;;1.92;;
34497;SDS011;20744;50.938;7.286;2024-02-26T07:30:06;3.75;;;1.70;;
34497;SDS011;20744;50.938;7.286;2024-02-26T07:32:35;4.30;;;1.80;;
34497;SDS011;20744;50.938;7.286;2024-02-26T07:35:03;3.15;;;1.63;;
34497;SDS011;20744;50.938;7.286;2024-02-26T07:37:31;3.17;;;1.52;;
34497;SDS011;20744;50.938;7.286;2024-02-26T07:39:58;3.20;;;1.70;;
34497;SDS011;20744;50.938;7.286;2024-02-26T07:42:25;2.60;;;1.58;;
34497;SDS011;20744;50.938;7.286;2024-02-26T07:44:53;2.58;;;1.75;;
34497;SDS011;20744;50.938;7.286;2024-02-26T07:47:20;2.45;;;1.52;;
34497;SDS011;20744;50.938;7.286;2024-02-26T07:49:52;5.35;;;1.70;;
34497;SDS011;20744;50.938;7.286;2024-02-26T07:52:19;4.82;;;1.90;;
34497;SDS011;20744;50.938;7.286;2024-02-26T07:54:49;3.78;;;1.60;;
34497;SDS011;20744;50.938;7.286;2024-02-26T07:57:16;7.43;;;2.22;;
34497;SDS011;20744;50.938;7.286;2024-02-26T07:59:44;2.83;;;1.67;;
34497;SDS011;20744;50.938;7.286;2024-02-26T08:02:14;2.20;;;1.50;;
34497;SDS011;20744;50.938;7.286;2024-02-26T08:04:42;4.22;;;2.22;;
34497;SDS011;20744;50.938;7.286;2024-02-26T08:07:10;4.30;;;2.05;;
34497;SDS011;20744;50.938;7.286;2024-02-26T08:09:39;4.30;;;1.75;;
34497;SDS011;20744;50.938;7.286;2024-02-26T08:12:07;3.03;;;1.80;;
34497;SDS011;20744;50.938;7.286;2024-02-26T08:14:34;3.80;;;2.22;;
34497;SDS011;20744;50.938;7.286;2024-02-26T08:17:04;3.83;;;1.83;;
34497;SDS011;20744;50.938;7.286;2024-02-26T08:19:31;2.80;;;1.70;;
34497;SDS011;20744;50.938;7.286;2024-02-26T08:22:00;4.72;;;2.10;;
34497;SDS011;20744;50.938;7.286;2024-02-26T08:24:29;3.38;;;2.10;;
34497;SDS011;20744;50.938;7.286;2024-02-26T08:26:57;2.53;;;1.73;;
34497;SDS011;20744;50.938;7.286;2024-02-26T08:29:24;3.40;;;2.00;;
34497;SDS011;20744;50.938;7.286;2024-02-26T08:31:51;5.13;;;1.90;;
34497;SDS011;20744;50.938;7.286;2024-02-26T08:34:18;5.20;;;2.47;;
34497;SDS011;20744;50.938;7.286;2024-02-26T08:36:46;4.10;;;2.60;;
34497;SDS011;20744;50.938;7.286;2024-02-26T08:39:14;5.97;;;2.00;;
34497;SDS011;20744;50.938;7.286;2024-02-26T08:41:43;3.55;;;2.05;;
34497;SDS011;20744;50.938;7.286;2024-02-26T08:44:11;2.42;;;1.60;;
34497;SDS011;20744;50.938;7.286;2024-02-26T08:46:38;3.72;;;1.67;;
34497;SDS011;20744;50.938;7.286;2024-02-26T08:49:05;2.92;;;1.77;;
34497;SDS011;20744;50.938;7.286;2024-02-26T08:51:32;6.25;;;2.20;;
34497;SDS011;20744;50.938;7.286;2024-02-26T08:54:00;3.92;;;2.00;;
34497;SDS011;20744;50.938;7.286;2024-02-26T08:56:27;6.55;;;2.10;;
34497;SDS011;20744;50.938;7.286;2024-02-26T08:58:56;4.35;;;2.05;;
34497;SDS011;20744;50.938;7.286;2024-02-26T09:01:28;4.10;;;1.77;;
34497;SDS011;20744;50.938;7.286;2024-02-26T09:03:55;2.88;;;1.80;;
34497;SDS011;20744;50.938;7.286;2024-02-26T09:06:23;4.65;;;2.00;;
34497;SDS011;20744;50.938;7.286;2024-02-26T09:08:50;2.92;;;1.88;;
34497;SDS011;20744;50.938;7.286;2024-02-26T09:11:17;5.20;;;2.17;;
34497;SDS011;20744;50.938;7.286;2024-02-26T09:13:44;5.00;;;2.22;;
34497;SDS011;20744;50.938;7.286;2024-02-26T09:16:13;3.40;;;1.73;;
34497;SDS011;20744;50.938;7.286;2024-02-26T09:18:40;3.22;;;1.92;;
34497;SDS011;20744;50.938;7.286;2024-02-26T09:21:07;5.15;;;1.65;;
34497;SDS011;20744;50.938;7.286;2024-02-26T09:23:35;5.80;;;1.80;;
34497;SDS011;20744;50.938;7.286;2024-02-26T09:26:02;3.72;;;1.92;;
34497;SDS011;20744;50.938;7.286;2024-02-26T09:28:30;3.40;;;1.98;;
34497;SDS011;20744;50.938;7.286;2024-02-26T09:31:02;3.67;;;1.90;;
34497;SDS011;20744;50.938;7.286;2024-02-26T09:33:31;3.47;;;1.75;;
34497;SDS011;20744;50.938;7.286;2024-02-26T09:35:58;3.40;;;2.05;;
34497;SDS011;20744;50.938;7.286;2024-02-26T09:38:26;6.18;;;2.35;;
34497;SDS011;20744;50.938;7.286;2024-02-26T09:40:53;4.00;;;1.98;;
34497;SDS011;20744;50.938;7.286;2024-02-26T09:43:21;4.75;;;1.90;;
34497;SDS011;20744;50.938;7.286;2024-02-26T09:45:49;3.13;;;1.83;;
34497;SDS011;20744;50.938;7.286;2024-02-26T09:48:17;7.00;;;2.30;;
34497;SDS011;20744;50.938;7.286;2024-02-26T09:50:46;6.05;;;2.20;;
34497;SDS011;20744;50.938;7.286;2024-02-26T09:53:13;5.20;;;2.50;;
34497;SDS011;20744;50.938;7.286;2024-02-26T09:55:41;4.18;;;2.42;;
34497;SDS011;20744;50.938;7.286;2024-02-26T09:58:08;6.55;;;2.38;;
34497;SDS011;20744;50.938;7.286;2024-02-26T10:00:43;5.40;;;2.40;;
34497;SDS011;20744;50.938;7.286;2024-02-26T10:03:13;3.85;;;2.10;;
34497;SDS011;20744;50.938;7.286;2024-02-26T10:05:40;4.70;;;2.33;;
34497;SDS011;20744;50.938;7.286;2024-02-26T10:08:09;7.75;;;2.10;;
34497;SDS011;20744;50.938;7.286;2024-02-26T10:10:38;5.20;;;2.53;;
34497;SDS011;20744;50.938;7.286;2024-02-26T10:13:05;5.85;;;2.40;;
34497;SDS011;20744;50.938;7.286;2024-02-26T10:15:35;6.60;;;2.50;;
34497;SDS011;20744;50.938;7.286;2024-02-26T10:18:03;6.20;;;2.72;;
34497;SDS011;20744;50.938;7.286;2024-02-26T10:20:31;4.93;;;2.53;;
34497;SDS011;20744;50.938;7.286;2024-02-26T10:22:58;7.45;;;2.95;;
34497;SDS011;20744;50.938;7.286;2024-02-26T10:25:27;4.72;;;2.45;;
34497;SDS011;20744;50.938;7.286;2024-02-26T10:27:56;4.45;;;2.58;;
34497;SDS011;20744;50.938;7.286;2024-02-26T10:30:29;5.35;;;2.20;;
34497;SDS011;20744;50.938;7.286;2024-02-26T10:32:56;5.40;;;2.13;;
34497;SDS011;20744;50.938;7.286;2024-02-26T10:35:24;5.32;;;2.38;;
34497;SDS011;20744;50.938;7.286;2024-02-26T10:37:52;3.25;;;2.40;;
34497;SDS011;20744;50.938;7.286;2024-02-26T10:40:23;6.10;;;2.25;;
34497;SDS011;20744;50.938;7.286;2024-02-26T10:42:51;5.32;;;2.53;;
34497;SDS011;20744;50.938;7.286;2024-02-26T10:45:19;5.55;;;2.28;;
34497;SDS011;20744;50.938;7.286;2024-02-26T10:47:46;4.65;;;2.35;;
34497;SDS011;20744;50.938;7.286;2024-02-26T10:50:16;6.85;;;2.63;;
34497;SDS011;20744;50.938;7.286;2024-02-26T10:52:43;4.43;;;2.40;;
34497;SDS011;20744;50.938;7.286;2024-02-26T10:55:13;4.60;;;2.40;;
34497;SDS011;20744;50.938;7.286;2024-02-26T10:57:43;4.22;;;2.47;;
34497;SDS011;20744;50.938;7.286;2024-02-26T11:00:14;6.20;;;2.60;;
34497;SDS011;20744;50.938;7.286;2024-02-26T11:02:42;5.32;;;2.67;;
34497;SDS011;20744;50.938;7.286;2024-02-26T11:05:11;8.18;;;2.70;;
34497;SDS011;20744;50.938;7.286;2024-02-26T11:07:39;7.03;;;2.72;;
34497;SDS011;20744;50.938;7.286;2024-02-26T11:10:08;4.20;;;2.38;;
34497;SDS011;20744;50.938;7.286;2024-02-26T11:12:36;3.47;;;2.50;;
34497;SDS011;20744;50.938;7.286;2024-02-26T11:15:05;3.85;;;2.60;;
34497;SDS011;20744;50.938;7.286;2024-02-26T11:17:34;7.05;;;2.58;;
34497;SDS011;20744;50.938;7.286;2024-02-26T11:20:04;4.15;;;2.33;;
34497;SDS011;20744;50.938;7.286;2024-02-26T11:22:31;4.43;;;2.45;;
34497;SDS011;20744;50.938;7.286;2024-02-26T11:24:59;3.90;;;2.40;;
34497;SDS011;20744;50.938;7.286;2024-02-26T11:27:27;4.95;;;2.40;;
34497;SDS011;20744;50.938;7.286;2024-02-26T11:29:56;4.65;;;2.70;;
34497;SDS011;20744;50.938;7.286;2024-02-26T11:32:25;5.22;;;2.50;;
34497;SDS011;20744;50.938;7.286;2024-02-26T11:34:56;4.38;;;2.83;;
34497;SDS011;20744;50.938;7.286;2024-02-26T11:37:24;4.20;;;2.50;;
34497;SDS011;20744;50.938;7.286;2024-02-26T11:39:51;5.80;;;2.83;;
34497;SDS011;20744;50.938;7.286;2024-02-26T11:42:23;6.50;;;2.80;;
34497;SDS011;20744;50.938;7.286;2024-02-26T11:44:51;4.05;;;2.40;;
34497;SDS011;20744;50.938;7.286;2024-02-26T11:47:19;4.30;;;2.80;;
34497;SDS011;20744;50.938;7.286;2024-02-26T11:49:46;5.00;;;2.95;;
34497;SDS011;20744;50.938;7.286;2024-02-26T11:52:15;5.93;;;2.95;;
34497;SDS011;20744;50.938;7.286;2024-02-26T11:54:46;4.22;;;2.63;;
34497;SDS011;20744;50.938;7.286;2024-02-26T11:57:24;4.65;;;3.20;;
34497;SDS011;20744;50.938;7.286;2024-02-26T11:59:50;5.32;;;2.95;;
34497;SDS011;20744;50.938;7.286;2024-02-26T12:05:00;5.88;;;3.08;;
34497;SDS011;20744;50.938;7.286;2024-02-26T12:07:30;8.52;;;2.88;;
34497;SDS011;20744;50.938;7.286;2024-02-26T12:12:40;4.75;;;2.70;;
34497;SDS011;20744;50.938;7.286;2024-02-26T12:15:08;6.80;;;3.08;;
34497;SDS011;20744;50.938;7.286;2024-02-26T12:17:37;6.45;;;3.15;;
34497;SDS011;20744;50.938;7.286;2024-02-26T12:20:08;9.13;;;3.63;;
34497;SDS011;20744;50.938;7.286;2024-02-26T12:22:37;5.72;;;3.38;;
34497;SDS011;20744;50.938;7.286;2024-02-26T12:25:08;4.72;;;3.05;;
34497;SDS011;20744;50.938;7.286;2024-02-26T12:27:35;5.35;;;3.00;;
34497;SDS011;20744;50.938;7.286;2024-02-26T12:30:03;5.38;;;2.92;;
34497;SDS011;20744;50.938;7.286;2024-02-26T12:32:32;5.40;;;2.80;;
34497;SDS011;20744;50.938;7.286;2024-02-26T12:34:59;4.75;;;2.78;;
34497;SDS011;20744;50.938;7.286;2024-02-26T12:37:26;4.82;;;3.08;;
34497;SDS011;20744;50.938;7.286;2024-02-26T12:39:55;6.93;;;3.38;;
34497;SDS011;20744;50.938;7.286;2024-02-26T12:42:22;4.75;;;2.55;;
34497;SDS011;20744;50.938;7.286;2024-02-26T12:44:49;6.68;;;3.28;;
34497;SDS011;20744;50.938;7.286;2024-02-26T12:47:17;6.25;;;3.42;;
34497;SDS011;20744;50.938;7.286;2024-02-26T12:49:46;5.60;;;3.03;;
34497;SDS011;20744;50.938;7.286;2024-02-26T12:52:13;7.97;;;3.35;;
34497;SDS011;20744;50.938;7.286;2024-02-26T12:54:40;6.70;;;3.15;;
34497;SDS011;20744;50.938;7.286;2024-02-26T12:57:09;5.00;;;3.05;;
34497;SDS011;20744;50.938;7.286;2024-02-26T12:59:36;5.43;;;3.22;;
34497;SDS011;20744;50.938;7.286;2024-02-26T13:02:04;7.40;;;3.38;;
34497;SDS011;20744;50.938;7.286;2024-02-26T13:04:31;5.25;;;3.20;;
34497;SDS011;20744;50.938;7.286;2024-02-26T13:06:59;4.50;;;2.95;;
34497;SDS011;20744;50.938;7.286;2024-02-26T13:09:31;6.28;;;3.22;;
34497;SDS011;20744;50.938;7.286;2024-02-26T13:11:59;5.55;;;3.05;;
34497;SDS011;20744;50.938;7.286;2024-02-26T13:14:28;9.23;;;3.22;;
34497;SDS011;20744;50.938;7.286;2024-02-26T13:16:56;8.90;;;5.22;;
34497;SDS011;20744;50.938;7.286;2024-02-26T13:19:24;6.15;;;3.15;;
34497;SDS011;20744;50.938;7.286;2024-02-26T13:21:52;7.43;;;3.60;;
34497;SDS011;20744;50.938;7.286;2024-02-26T13:24:20;7.55;;;3.30;;
34497;SDS011;20744;50.938;7.286;2024-02-26T13:26:53;6.40;;;3.50;;
34497;SDS011;20744;50.938;7.286;2024-02-26T13:29:21;6.80;;;3.70;;
34497;SDS011;20744;50.938;7.286;2024-02-26T13:31:54;5.38;;;3.30;;
34497;SDS011;20744;50.938;7.286;2024-02-26T13:34:22;6.03;;;3.92;;
34497;SDS011;20744;50.938;7.286;2024-02-26T13:36:50;6.75;;;3.40;;
34497;SDS011;20744;50.938;7.286;2024-02-26T13:39:21;7.00;;;3.95;;
34497;SDS011;20744;50.938;7.286;2024-02-26T13:41:49;7.55;;;3.63;;
34497;SDS011;20744;50.938;7.286;2024-02-26T13:44:17;5.55;;;3.63;;
34497;SDS011;20744;50.938;7.286;2024-02-26T13:46:44;7.60;;;4.30;;
34497;SDS011;20744;50.938;7.286;2024-02-26T13:49:13;7.97;;;4.03;;
34497;SDS011;20744;50.938;7.286;2024-02-26T13:51:40;6.40;;;4.00;;
34497;SDS011;20744;50.938;7.286;2024-02-26T13:54:07;5.25;;;3.72;;
34497;SDS011;20744;50.938;7.286;2024-02-26T13:56:35;7.05;;;4.03;;
34497;SDS011;20744;50.938;7.286;2024-02-26T13:59:03;5.95;;;3.50;;
34497;SDS011;20744;50.938;7.286;2024-02-26T14:01:30;7.25;;;4.07;;
34497;SDS011;20744;50.938;7.286;2024-02-26T14:03:58;5.50;;;3.90;;
34497;SDS011;20744;50.938;7.286;2024-02-26T14:06:31;5.22;;;3.50;;
34497;SDS011;20744;50.938;7.286;2024-02-26T14:08:58;8.05;;;4.28;;
34497;SDS011;20744;50.938;7.286;2024-02-26T14:11:25;9.25;;;4.10;;
34497;SDS011;20744;50.938;7.286;2024-02-26T14:13:54;7.93;;;4.18;;
34497;SDS011;20744;50.938;7.286;2024-02-26T14:16:21;6.10;;;3.78;;
34497;SDS011;20744;50.938;7.286;2024-02-26T14:18:48;7.28;;;4.20;;
34497;SDS011;20744;50.938;7.286;2024-02-26T14:21:16;7.85;;;3.70;;
34497;SDS011;20744;50.938;7.286;2024-02-26T14:23:44;8.80;;;4.75;;
34497;SDS011;20744;50.938;7.286;2024-02-26T14:26:12;6.72;;;4.35;;
34497;SDS011;20744;50.938;7.286;2024-02-26T14:28:39;8.77;;;4.90;;
34497;SDS011;20744;50.938;7.286;2024-02-26T14:31:06;8.18;;;4.60;;
34497;SDS011;20744;50.938;7.286;2024-02-26T14:33:37;7.35;;;4.40;;
34497;SDS011;20744;50.938;7.286;2024-02-26T14:36:05;10.82;;;4.60;;
34497;SDS011;20744;50.938;7.286;2024-02-26T14:38:33;10.20;;;4.30;;
34497;SDS011;20744;50.938;7.286;2024-02-26T14:41:02;7.95;;;4.45;;
34497;SDS011;20744;50.938;7.286;2024-02-26T14:43:30;7.18;;;4.88;;
34497;SDS011;20744;50.938;7.286;2024-02-26T14:45:57;8.50;;;4.95;;
34497;SDS011;20744;50.938;7.286;2024-02-26T14:48:25;8.00;;;5.05;;
34497;SDS011;20744;50.938;7.286;2024-02-26T14:50:52;9.95;;;5.72;;
34497;SDS011;20744;50.938;7.286;2024-02-26T14:53:19;8.90;;;5.13;;
34497;SDS011;20744;50.938;7.286;2024-02-26T14:55:47;11.63;;;4.95;;
34497;SDS011;20744;50.938;7.286;2024-02-26T14:58:15;12.80;;;5.28;;